Time;durP1;ratioP1;P1;durP2;ratioP2;P2;SDS_P1;SDS_P2;PMS_P1;PMS_P2;Temp;Humidity;BMP_temperature;BMP_pressure;BME280_temperature;BME280_humidity;BME280_pressure;Samples;Min_cycle;Max_cycle;Signal;HPM_P1;HPM_P2
2022/11/28 00:00:52;;;;;;;10.30;6.70;;;6.50;1.00;;;;;;5080496;28;20401;-82
2022/11/28 00:03:23;;;;;;;8.20;6.23;;;6.50;1.00;;;;;;5084673;28;20529;-85
2022/11/28 00:05:52;;;;;;;9.30;5.63;;;6.50;1.00;;;;;;5092059;28;20448;-85
2022/11/28 00:08:52;;;;;;;13.03;6.03;;;6.50;1.00;;;;;;5082814;28;20416;-85
2022/11/28 00:14:40;;;;;;;8.57;6.63;;;6.50;1.00;;;;;;5087066;28;20420;-85
2022/11/28 00:17:22;;;;;;;10.83;6.23;;;6.50;1.00;;;;;;5079840;28;20412;-85
2022/11/28 00:19:48;;;;;;;11.43;7.30;;;6.50;1.00;;;;;;5086006;28;20544;-85
2022/11/28 00:22:22;;;;;;;10.70;7.30;;;6.50;1.00;;;;;;5077901;28;20421;-85
2022/11/28 00:24:48;;;;;;;11.13;6.80;;;6.40;1.00;;;;;;5076713;28;20599;-85
2022/11/28 00:27:14;;;;;;;11.77;6.33;;;6.40;1.00;;;;;;5086337;28;20478;-85
2022/11/28 00:29:52;;;;;;;11.30;7.23;;;6.40;1.00;;;;;;5078298;28;20232;-85
2022/11/28 00:32:34;;;;;;;9.70;6.70;;;6.40;1.00;;;;;;5087827;28;20649;-85
2022/11/28 00:35:22;;;;;;;8.70;7.07;;;6.40;1.00;;;;;;5085404;28;20776;-85
2022/11/28 00:37:52;;;;;;;12.07;7.67;;;6.30;1.00;;;;;;5075637;28;20417;-85
2022/11/28 00:40:22;;;;;;;8.73;6.60;;;6.30;1.00;;;;;;5076715;28;20540;-85
2022/11/28 00:42:48;;;;;;;8.20;5.83;;;6.20;1.00;;;;;;5090185;28;20401;-86
2022/11/28 00:46:04;;;;;;;9.60;6.40;;;6.10;1.00;;;;;;5080271;28;20483;-85
2022/11/28 00:48:31;;;;;;;9.47;6.80;;;6.10;1.00;;;;;;5087137;28;20265;-82
2022/11/28 00:51:26;;;;;;;10.40;7.00;;;6.00;1.00;;;;;;5082829;28;20410;-82
2022/11/28 00:53:55;;;;;;;8.77;6.60;;;6.00;1.00;;;;;;5081097;28;20420;-82
2022/11/28 00:56:52;;;;;;;15.80;8.27;;;5.90;1.00;;;;;;5076039;28;20578;-82
2022/11/28 00:59:22;;;;;;;10.20;7.57;;;5.90;1.00;;;;;;5091133;28;20413;-81
2022/11/28 01:01:48;;;;;;;12.03;7.57;;;5.80;1.00;;;;;;5075994;28;20949;-82
2022/11/28 01:04:16;;;;;;;11.17;7.20;;;5.90;1.00;;;;;;5078815;28;20453;-85
2022/11/28 01:06:45;;;;;;;10.50;6.80;;;5.90;1.00;;;;;;5079999;28;20424;-85
2022/11/28 01:09:46;;;;;;;9.97;6.87;;;5.90;1.00;;;;;;5093452;28;20798;-85
2022/11/28 01:15:52;;;;;;;9.73;6.77;;;5.80;1.00;;;;;;5083206;28;20400;-85
2022/11/28 01:18:22;;;;;;;9.23;6.53;;;5.80;1.00;;;;;;5091504;28;20423;-82
2022/11/28 01:20:52;;;;;;;17.40;7.60;;;5.80;1.00;;;;;;5091602;28;20493;-85
2022/11/28 01:23:22;;;;;;;10.13;6.37;;;5.70;1.00;;;;;;5080006;28;20536;-85
2022/11/28 01:25:48;;;;;;;7.00;5.77;;;5.70;1.00;;;;;;5087083;28;20440;-85
2022/11/28 01:28:39;;;;;;;11.57;6.10;;;5.70;1.00;;;;;;5080757;28;20790;-85
2022/11/28 01:31:07;;;;;;;8.90;6.20;;;5.70;1.00;;;;;;5082463;28;20269;-85
2022/11/28 01:33:34;;;;;;;8.40;6.20;;;5.70;1.00;;;;;;5076202;28;20413;-83
2022/11/28 01:36:04;;;;;;;10.83;6.43;;;5.70;1.00;;;;;;5086892;28;20483;-83
2022/11/28 01:38:47;;;;;;;9.30;6.00;;;5.60;1.00;;;;;;5077082;28;20417;-82
2022/11/28 01:41:34;;;;;;;7.67;6.00;;;5.70;1.00;;;;;;5088644;28;20474;-81
2022/11/28 01:44:16;;;;;;;8.90;6.63;;;5.70;1.00;;;;;;5086369;28;20943;-82
2022/11/28 01:46:46;;;;;;;9.67;6.47;;;5.60;1.00;;;;;;5077146;28;20425;-82
2022/11/28 01:49:21;;;;;;;14.40;6.20;;;5.70;1.00;;;;;;5077366;28;20409;-85
2022/11/28 01:52:12;;;;;;;9.70;5.70;;;5.60;1.00;;;;;;5084107;28;20445;-85
2022/11/28 01:54:56;;;;;;;7.57;6.13;;;5.70;1.00;;;;;;5088477;28;20451;-86
2022/11/28 01:57:41;;;;;;;11.10;6.10;;;5.60;1.00;;;;;;5074323;28;20423;-86
2022/11/28 02:00:28;;;;;;;12.77;8.03;;;5.70;1.00;;;;;;5083402;28;20429;-85
2022/11/28 02:06:23;;;;;;;9.73;7.23;;;5.60;1.00;;;;;;5083817;28;20420;-85
2022/11/28 02:12:51;;;;;;;10.83;6.70;;;5.70;1.00;;;;;;5076590;28;20451;-85
2022/11/28 02:15:37;;;;;;;8.70;7.10;;;5.70;1.00;;;;;;5074367;28;20425;-85
2022/11/28 02:18:22;;;;;;;11.00;8.23;;;5.70;1.00;;;;;;5073669;28;20946;-86
2022/11/28 02:24:53;;;;;;;8.63;6.50;;;5.80;1.00;;;;;;5081632;28;20455;-85
2022/11/28 02:38:00;;;;;;;10.57;7.53;;;5.80;1.00;;;;;;5011309;28;20950;-82
2022/11/28 02:40:52;;;;;;;11.67;7.20;;;5.80;1.00;;;;;;4934246;29;20423;-82
2022/11/28 02:47:01;;;;;;;10.43;7.90;;;5.90;1.00;;;;;;4934074;29;20415;-82
2022/11/28 02:50:04;;;;;;;11.97;7.80;;;5.90;1.00;;;;;;4934782;29;20428;-85
2022/11/28 02:52:38;;;;;;;11.40;7.87;;;5.90;1.00;;;;;;4934520;29;20423;-85
2022/11/28 02:58:25;;;;;;;12.80;7.50;;;5.90;1.00;;;;;;4934973;29;20817;-85
2022/11/28 03:04:26;;;;;;;8.70;6.83;;;5.90;1.00;;;;;;4978029;28;20459;-86
2022/11/28 03:07:04;;;;;;;13.00;7.73;;;5.90;1.00;;;;;;5011666;28;20443;-82
2022/11/28 03:13:17;;;;;;;13.67;7.80;;;5.90;1.00;;;;;;5011197;28;20403;-81
2022/11/28 03:16:24;;;;;;;10.03;7.60;;;5.90;1.00;;;;;;4954705;28;20430;-81
2022/11/28 03:19:08;;;;;;;10.20;6.93;;;5.80;1.00;;;;;;4956292;28;20430;-81
2022/11/28 03:21:41;;;;;;;11.87;7.60;;;5.80;1.00;;;;;;4972967;28;20413;-82
2022/11/28 03:24:19;;;;;;;10.87;7.00;;;5.80;1.00;;;;;;4972265;28;20987;-81
2022/11/28 03:27:28;;;;;;;12.13;7.17;;;5.80;1.00;;;;;;4972288;28;21020;-81
2022/11/28 03:30:30;;;;;;;12.23;7.10;;;5.80;1.00;;;;;;4956126;28;20442;-81
2022/11/28 03:33:01;;;;;;;10.80;8.17;;;5.80;1.00;;;;;;4914630;29;20463;-81
2022/11/28 03:35:54;;;;;;;11.60;7.97;;;5.80;1.00;;;;;;4915434;29;20862;-86
2022/11/28 03:38:39;;;;;;;9.50;7.10;;;5.80;1.00;;;;;;4915887;29;20509;-86
2022/11/28 03:47:55;;;;;;;9.60;7.00;;;5.70;1.00;;;;;;4915570;29;20439;-86
2022/11/28 03:53:54;;;;;;;12.83;7.40;;;5.70;1.00;;;;;;5008629;28;20399;-85
2022/11/28 03:59:49;;;;;;;14.50;9.53;;;5.70;1.00;;;;;;5018016;28;20938;-85
2022/11/28 04:06:01;;;;;;;10.10;7.60;;;5.70;1.00;;;;;;5030582;28;20501;-82
2022/11/28 04:08:33;;;;;;;12.47;8.07;;;5.70;1.00;;;;;;5081506;28;20413;-82
2022/11/28 04:11:14;;;;;;;11.83;8.10;;;5.70;1.00;;;;;;5084152;28;20412;-81
2022/11/28 04:14:11;;;;;;;14.00;8.53;;;5.70;1.00;;;;;;5083107;28;20420;-82
2022/11/28 04:16:44;;;;;;;12.00;7.93;;;5.70;1.00;;;;;;5078436;28;20415;-81
2022/11/28 04:19:22;;;;;;;11.27;8.20;;;5.70;1.00;;;;;;5087156;28;20405;-81
2022/11/28 04:22:34;;;;;;;11.03;8.10;;;5.70;1.00;;;;;;5078181;28;20419;-82
2022/11/28 04:28:26;;;;;;;14.40;9.50;;;5.70;1.00;;;;;;5089554;28;20427;-81
2022/11/28 04:31:34;;;;;;;14.07;9.30;;;5.70;1.00;;;;;;5087256;28;20781;-82
2022/11/28 04:34:15;;;;;;;13.00;9.33;;;5.70;1.00;;;;;;5087388;28;20896;-81
2022/11/28 04:37:06;;;;;;;16.67;8.80;;;5.70;1.00;;;;;;5087858;28;20429;-81
2022/11/28 04:39:35;;;;;;;12.20;7.97;;;5.70;1.00;;;;;;5089828;28;20463;-81
2022/11/28 04:42:15;;;;;;;16.87;9.90;;;5.70;1.00;;;;;;5085041;28;20470;-82
2022/11/28 04:45:28;;;;;;;14.10;9.77;;;5.70;1.00;;;;;;5078871;28;20455;-81
2022/11/28 04:48:05;;;;;;;14.80;9.67;;;5.70;1.00;;;;;;5076793;28;20449;-82
2022/11/28 04:51:00;;;;;;;11.50;8.50;;;5.70;1.00;;;;;;5077148;28;20811;-81
2022/11/28 04:57:18;;;;;;;12.70;9.20;;;5.70;1.00;;;;;;5088386;28;20530;-83
2022/11/28 05:00:06;;;;;;;12.40;9.30;;;5.80;1.00;;;;;;5080521;28;20413;-82
2022/11/28 05:02:33;;;;;;;13.60;9.50;;;5.80;1.00;;;;;;5080130;28;20421;-81
2022/11/28 05:05:24;;;;;;;20.23;9.20;;;5.70;1.00;;;;;;5089025;28;21021;-81
2022/11/28 05:07:50;;;;;;;13.23;8.93;;;5.80;1.00;;;;;;5080184;28;20836;-83
2022/11/28 05:10:16;;;;;;;12.10;8.37;;;5.80;1.00;;;;;;5076406;28;20435;-84
2022/11/28 05:16:05;;;;;;;15.50;9.63;;;5.90;1.00;;;;;;5081182;28;20428;-82
2022/11/28 05:18:34;;;;;;;13.70;9.53;;;5.80;1.00;;;;;;5079429;28;20906;-82
2022/11/28 05:27:43;;;;;;;17.20;9.83;;;5.80;1.00;;;;;;5091752;28;20472;-85
2022/11/28 05:30:54;;;;;;;16.53;9.27;;;5.70;1.00;;;;;;5077027;28;20480;-85
2022/11/28 05:33:22;;;;;;;14.20;8.90;;;5.80;1.00;;;;;;5087692;28;20242;-86
2022/11/28 05:43:04;;;;;;;17.10;9.23;;;5.70;1.00;;;;;;5089751;28;20534;-87
2022/11/28 05:49:28;;;;;;;12.90;8.47;;;5.70;1.00;;;;;;5082637;28;20446;-85
2022/11/28 05:52:16;;;;;;;14.30;9.30;;;5.60;1.00;;;;;;5084059;28;20951;-86
2022/11/28 05:58:03;;;;;;;13.53;9.03;;;5.60;1.00;;;;;;5088396;28;20427;-86
2022/11/28 06:00:46;;;;;;;13.10;9.30;;;5.50;1.00;;;;;;5083318;28;20416;-86
2022/11/28 06:04:04;;;;;;;14.80;9.23;;;5.50;1.00;;;;;;5075986;28;20221;-86
2022/11/28 06:06:49;;;;;;;17.30;9.20;;;5.50;1.00;;;;;;5085273;28;20435;-85
2022/11/28 06:09:34;;;;;;;21.40;9.20;;;5.50;1.00;;;;;;5085096;28;20452;-86
2022/11/28 06:12:46;;;;;;;13.70;8.80;;;5.60;1.00;;;;;;5086452;28;20416;-86
2022/11/28 06:19:04;;;;;;;13.67;8.90;;;5.50;1.00;;;;;;5085638;28;20448;-84
2022/11/28 06:21:34;;;;;;;14.87;9.60;;;5.50;1.00;;;;;;5075232;28;20461;-83
2022/11/28 06:24:05;;;;;;;15.80;9.90;;;5.50;1.00;;;;;;5080791;28;20453;-82
2022/11/28 06:26:30;;;;;;;13.80;9.67;;;5.50;1.00;;;;;;5074034;28;20423;-82
2022/11/28 06:28:57;;;;;;;14.13;8.90;;;5.50;1.00;;;;;;5083534;28;20437;-82
2022/11/28 06:31:40;;;;;;;14.17;9.40;;;5.50;1.00;;;;;;5074688;28;20183;-82
2022/11/28 06:34:11;;;;;;;16.03;9.60;;;5.60;1.00;;;;;;5077463;28;20977;-82
2022/11/28 06:36:38;;;;;;;16.83;9.40;;;5.60;1.00;;;;;;5074635;28;20436;-76
2022/11/28 06:39:04;;;;;;;14.00;9.70;;;5.60;1.00;;;;;;5076617;28;20401;-76
2022/11/28 06:41:41;;;;;;;15.10;9.43;;;5.60;1.00;;;;;;5082296;28;20438;-77
2022/11/28 06:44:28;;;;;;;15.93;9.50;;;5.50;1.00;;;;;;5078649;28;20997;-77
2022/11/28 06:46:54;;;;;;;14.83;9.77;;;5.50;1.00;;;;;;5090624;28;20412;-76
2022/11/28 06:49:22;;;;;;;17.07;10.53;;;5.50;1.00;;;;;;5089101;28;20431;-76
2022/11/28 06:51:48;;;;;;;18.23;10.23;;;5.50;1.00;;;;;;5079841;28;20504;-76
2022/11/28 06:54:16;;;;;;;18.53;10.47;;;5.50;1.00;;;;;;5077066;28;21186;-76
2022/11/28 06:56:52;;;;;;;20.70;11.40;;;5.50;1.00;;;;;;5080867;28;20567;-76
2022/11/28 06:59:34;;;;;;;19.40;11.20;;;5.50;1.00;;;;;;5088505;28;20802;-78
2022/11/28 07:02:10;;;;;;;18.20;10.43;;;5.50;1.00;;;;;;5073419;28;20427;-76
2022/11/28 07:04:36;;;;;;;18.20;11.07;;;5.50;1.00;;;;;;5078518;28;20967;-76
2022/11/28 07:07:10;;;;;;;19.73;10.90;;;5.50;1.00;;;;;;5082087;28;20428;-77
2022/11/28 07:09:46;;;;;;;16.23;10.23;;;5.40;1.00;;;;;;5093045;28;20851;-77
2022/11/28 07:12:17;;;;;;;15.10;9.70;;;5.40;1.00;;;;;;5082703;28;20506;-76
2022/11/28 07:15:13;;;;;;;20.30;10.60;;;5.40;1.00;;;;;;5073030;28;20413;-77
2022/11/28 07:17:38;;;;;;;17.03;10.90;;;5.40;1.00;;;;;;5078263;28;20428;-76
2022/11/28 07:20:05;;;;;;;18.20;10.07;;;5.50;1.00;;;;;;5079641;28;20405;-76
2022/11/28 07:22:31;;;;;;;30.33;10.73;;;5.40;1.00;;;;;;5080847;28;20259;-76
2022/11/28 07:25:05;;;;;;;19.43;10.97;;;5.50;1.00;;;;;;5079895;28;20483;-76
2022/11/28 07:27:41;;;;;;;26.23;11.80;;;5.50;1.00;;;;;;5082048;28;20530;-76
2022/11/28 07:30:18;;;;;;;16.70;11.00;;;5.50;1.00;;;;;;5095135;28;20427;-77
2022/11/28 07:32:45;;;;;;;15.20;10.27;;;5.50;1.00;;;;;;5086651;28;21072;-77
2022/11/28 07:35:22;;;;;;;16.83;10.33;;;5.50;1.00;;;;;;5093315;28;20501;-76
2022/11/28 07:37:48;;;;;;;28.23;11.80;;;5.50;1.00;;;;;;5097333;28;20492;-76
2022/11/28 07:40:18;;;;;;;20.43;11.20;;;5.60;1.00;;;;;;5089720;28;20447;-76
2022/11/28 07:42:44;;;;;;;26.27;11.67;;;5.60;1.00;;;;;;5085030;28;20182;-71
2022/11/28 07:45:10;;;;;;;19.07;11.30;;;5.60;1.00;;;;;;5076158;28;20479;-71
2022/11/28 07:47:37;;;;;;;20.50;11.27;;;5.70;1.00;;;;;;5081623;28;20409;-71
2022/11/28 07:50:03;;;;;;;16.67;11.10;;;5.70;1.00;;;;;;5080752;28;20428;-71
2022/11/28 07:52:28;;;;;;;20.00;10.60;;;5.70;1.00;;;;;;5090184;28;20417;-71
2022/11/28 07:54:54;;;;;;;17.93;11.03;;;5.80;1.00;;;;;;5088589;28;20478;-71
2022/11/28 07:57:20;;;;;;;19.57;9.70;;;5.90;1.00;;;;;;5082894;28;20601;-71
2022/11/28 07:59:45;;;;;;;19.40;11.40;;;5.90;1.00;;;;;;5079825;28;20203;-71
2022/11/28 08:02:11;;;;;;;20.40;10.80;;;6.00;1.00;;;;;;5083956;28;20171;-71
2022/11/28 08:04:39;;;;;;;21.83;10.37;;;6.00;1.00;;;;;;5082019;28;20195;-71
2022/11/28 08:07:04;;;;;;;19.47;9.93;;;6.10;1.00;;;;;;5080602;28;20423;-71
2022/11/28 08:09:31;;;;;;;16.27;10.60;;;6.10;1.00;;;;;;5084390;28;20504;-70
2022/11/28 08:11:57;;;;;;;17.03;10.93;;;6.10;1.00;;;;;;5076287;28;20171;-71
2022/11/28 08:14:23;;;;;;;17.03;11.13;;;6.20;1.00;;;;;;5086069;28;20473;-70
2022/11/28 08:16:49;;;;;;;15.47;10.37;;;6.20;1.00;;;;;;5080720;28;20416;-70
2022/11/28 08:19:15;;;;;;;18.33;9.00;;;6.30;1.00;;;;;;5084601;28;20422;-70
2022/11/28 08:21:40;;;;;;;19.10;9.97;;;6.30;1.00;;;;;;5086400;28;20178;-71
2022/11/28 08:24:06;;;;;;;15.40;10.20;;;6.40;1.00;;;;;;5075391;28;20688;-70
2022/11/28 08:26:33;;;;;;;15.00;9.97;;;6.40;1.00;;;;;;5084064;28;20200;-68
2022/11/28 08:29:01;;;;;;;18.57;10.17;;;6.50;1.00;;;;;;5087863;28;20445;-71
2022/11/28 08:31:30;;;;;;;16.00;9.83;;;6.60;1.00;;;;;;5089002;28;20412;-70
2022/11/28 08:33:58;;;;;;;17.70;10.30;;;6.60;1.00;;;;;;5077065;28;20798;-70
2022/11/28 08:36:24;;;;;;;22.77;9.50;;;6.70;1.00;;;;;;5089014;28;20408;-68
2022/11/28 08:38:50;;;;;;;15.97;8.53;;;6.70;1.00;;;;;;5077567;28;20800;-68
2022/11/28 08:41:19;;;;;;;13.33;7.80;;;6.80;1.00;;;;;;5076708;28;20421;-68
2022/11/28 08:43:45;;;;;;;13.83;8.50;;;6.90;1.00;;;;;;5085518;28;20509;-69
2022/11/28 08:46:17;;;;;;;16.53;10.43;;;6.90;1.00;;;;;;5088946;28;20405;-68
2022/11/28 08:48:43;;;;;;;15.70;8.87;;;7.00;1.00;;;;;;5080024;28;20411;-68
2022/11/28 08:51:14;;;;;;;14.43;8.87;;;7.10;1.00;;;;;;5088461;28;20417;-68
2022/11/28 08:53:41;;;;;;;14.67;8.97;;;7.20;1.00;;;;;;5083792;28;20908;-68
2022/11/28 08:56:07;;;;;;;14.87;8.73;;;7.20;1.00;;;;;;5082359;28;20429;-68
2022/11/28 08:58:33;;;;;;;15.50;8.40;;;7.30;1.00;;;;;;5073870;28;20436;-68
2022/11/28 09:00:58;;;;;;;14.83;7.80;;;7.30;1.00;;;;;;5089718;28;20436;-68
2022/11/28 09:03:24;;;;;;;15.00;8.70;;;7.30;1.00;;;;;;5078474;28;20248;-68
2022/11/28 09:05:50;;;;;;;14.97;8.47;;;7.40;1.00;;;;;;5082390;28;20171;-68
2022/11/28 09:08:18;;;;;;;21.03;9.10;;;7.40;1.00;;;;;;5091559;28;20249;-67
2022/11/28 09:10:45;;;;;;;15.27;9.23;;;7.50;1.00;;;;;;5079850;28;20420;-68
2022/11/28 09:13:12;;;;;;;20.80;9.10;;;7.50;1.00;;;;;;5082046;28;20409;-68
2022/11/28 09:15:42;;;;;;;16.80;10.03;;;7.50;1.00;;;;;;5087330;28;20417;-68
2022/11/28 09:18:08;;;;;;;15.40;9.00;;;7.50;1.00;;;;;;5079593;28;20421;-70
2022/11/28 09:20:34;;;;;;;15.07;9.13;;;7.60;1.00;;;;;;5083913;28;20443;-68
2022/11/28 09:23:02;;;;;;;17.73;8.40;;;7.70;1.00;;;;;;5078265;28;20422;-70
2022/11/28 09:25:28;;;;;;;12.90;8.30;;;7.70;1.00;;;;;;5075695;28;20513;-71
2022/11/28 09:27:54;;;;;;;16.40;9.27;;;7.80;1.00;;;;;;5083083;28;20432;-71
2022/11/28 09:30:24;;;;;;;16.33;9.47;;;7.90;1.00;;;;;;5082041;28;20197;-70
2022/11/28 09:32:50;;;;;;;15.10;8.50;;;8.00;1.00;;;;;;5083517;28;20256;-80
2022/11/28 09:35:17;;;;;;;14.40;8.80;;;8.10;1.00;;;;;;5080454;28;20424;-80
2022/11/28 09:38:10;;;;;;;16.53;9.80;;;8.30;1.00;;;;;;5093792;28;20975;-79
2022/11/28 09:40:43;;;;;;;13.53;8.57;;;8.30;1.00;;;;;;5082224;28;20419;-80
2022/11/28 09:43:43;;;;;;;15.97;8.67;;;8.40;1.00;;;;;;5085174;28;20413;-80
2022/11/28 09:46:24;;;;;;;15.90;9.23;;;8.50;1.00;;;;;;5087423;28;21155;-79
2022/11/28 09:49:22;;;;;;;20.20;8.53;;;8.50;1.00;;;;;;5095256;28;20490;-81
2022/11/28 09:52:18;;;;;;;13.80;7.60;;;8.60;1.00;;;;;;5074157;28;20398;-81
2022/11/28 09:55:17;;;;;;;15.00;8.60;;;8.70;1.00;;;;;;5006106;28;20444;-81
2022/11/28 09:58:03;;;;;;;14.73;8.70;;;8.80;1.00;;;;;;4997746;28;20968;-83
2022/11/28 10:01:10;;;;;;;15.37;9.27;;;8.90;1.00;;;;;;5002286;28;20563;-81
2022/11/28 10:07:34;;;;;;;14.77;8.30;;;8.90;1.00;;;;;;4993390;28;20431;-81
2022/11/28 10:10:15;;;;;;;13.67;8.90;;;8.90;1.00;;;;;;5000097;28;20453;-81
2022/11/28 10:13:19;;;;;;;15.30;8.57;;;8.90;1.00;;;;;;4977118;28;20429;-81
2022/11/28 10:19:36;;;;;;;17.27;8.37;;;8.90;1.00;;;;;;4996047;28;20442;-81
2022/11/28 10:22:06;;;;;;;14.37;9.03;;;9.00;1.00;;;;;;5008874;28;20528;-79
2022/11/28 10:24:43;;;;;;;13.73;8.30;;;9.00;1.00;;;;;;5009933;28;20475;-85
2022/11/28 10:27:13;;;;;;;15.67;8.60;;;9.10;1.00;;;;;;4997494;28;21009;-85
2022/11/28 10:33:21;;;;;;;15.40;9.17;;;9.20;1.00;;;;;;5074740;28;20512;-85
2022/11/28 10:36:00;;;;;;;14.23;9.10;;;9.10;1.00;;;;;;5087871;28;20530;-85
2022/11/28 10:38:41;;;;;;;15.17;7.83;;;9.20;1.00;;;;;;5086100;28;20418;-85
2022/11/28 10:48:52;;;;;;;15.27;9.30;;;9.40;1.00;;;;;;5050116;28;20430;-85
2022/11/28 10:55:22;;;;;;;13.13;8.17;;;9.50;1.00;;;;;;5046194;28;20409;-85
2022/11/28 11:04:41;;;;;;;11.27;7.67;;;9.60;1.00;;;;;;5041749;28;20541;-85
2022/11/28 11:07:28;;;;;;;13.80;8.33;;;9.80;1.00;;;;;;5035403;28;20426;-84
2022/11/28 11:10:38;;;;;;;13.73;7.80;;;9.80;1.00;;;;;;5036019;28;20762;-84
2022/11/28 11:13:26;;;;;;;15.20;8.07;;;9.70;1.00;;;;;;4976756;28;20423;-85
2022/11/28 11:16:05;;;;;;;14.67;8.60;;;9.80;1.00;;;;;;4983036;28;20424;-85
2022/11/28 11:21:59;;;;;;;10.33;7.27;;;10.00;1.00;;;;;;5010220;28;20407;-85
2022/11/28 11:24:34;;;;;;;12.83;7.83;;;10.10;1.00;;;;;;4996206;28;21030;-78
2022/11/28 11:27:20;;;;;;;14.97;7.80;;;10.10;1.00;;;;;;5002481;28;20416;-77
2022/11/28 11:29:46;;;;;;;12.63;8.20;;;10.10;1.00;;;;;;4994836;28;20559;-80
2022/11/28 11:32:28;;;;;;;12.23;7.97;;;10.10;1.00;;;;;;5011469;28;20416;-80
2022/11/28 11:34:58;;;;;;;11.73;7.80;;;10.30;1.00;;;;;;5011470;28;20426;-80
2022/11/28 11:37:37;;;;;;;13.80;8.50;;;10.10;1.00;;;;;;5011430;28;20983;-80
2022/11/28 11:40:19;;;;;;;13.00;8.20;;;10.10;1.00;;;;;;5012101;28;20473;-87
2022/11/28 11:47:12;;;;;;;13.53;7.40;;;10.20;1.00;;;;;;4992547;28;20412;-88
2022/11/28 11:50:03;;;;;;;11.17;7.53;;;10.20;1.00;;;;;;5015211;28;20437;-83
2022/11/28 11:52:29;;;;;;;11.90;8.00;;;10.40;1.00;;;;;;5086132;28;20537;-88
2022/11/28 11:55:23;;;;;;;11.57;7.70;;;10.50;1.00;;;;;;5093879;28;20412;-88
2022/11/28 12:02:04;;;;;;;14.43;7.67;;;10.60;1.00;;;;;;5077491;28;20968;-83
2022/11/28 12:04:53;;;;;;;16.43;8.60;;;10.30;1.00;;;;;;5082136;28;20498;-84
2022/11/28 12:07:52;;;;;;;15.90;8.20;;;10.10;1.00;;;;;;5074079;28;20413;-85
2022/11/28 12:10:21;;;;;;;11.90;7.83;;;10.00;1.00;;;;;;5081758;28;20393;-82
2022/11/28 12:12:53;;;;;;;10.53;7.53;;;9.90;1.00;;;;;;5086452;28;20427;-82
2022/11/28 12:16:04;;;;;;;13.37;8.23;;;10.00;1.00;;;;;;5077334;28;20402;-81
2022/11/28 12:18:47;;;;;;;18.43;8.50;;;10.10;1.00;;;;;;5076459;28;20745;-80
2022/11/28 12:21:46;;;;;;;15.07;8.00;;;10.10;1.00;;;;;;5077444;28;20423;-77
2022/11/28 12:24:45;;;;;;;18.23;8.60;;;10.10;1.00;;;;;;5085393;28;20456;-78
2022/11/28 12:27:38;;;;;;;14.20;8.60;;;9.90;1.00;;;;;;5076804;28;20437;-80
2022/11/28 12:30:04;;;;;;;17.20;8.77;;;9.80;1.00;;;;;;5083294;28;20443;-80
2022/11/28 12:32:47;;;;;;;11.97;8.60;;;9.80;1.00;;;;;;5096178;28;20392;-80
2022/11/28 12:35:19;;;;;;;14.67;8.53;;;9.80;1.00;;;;;;5085479;28;20178;-80
2022/11/28 12:38:14;;;;;;;13.90;9.13;;;9.90;1.00;;;;;;5078877;28;20482;-82
2022/11/28 12:48:04;;;;;;;12.90;9.00;;;9.50;1.00;;;;;;5080186;28;20466;-89
2022/11/28 12:50:42;;;;;;;13.70;8.97;;;9.60;1.00;;;;;;5084283;28;20482;-89
2022/11/28 12:57:16;;;;;;;17.40;8.90;;;9.60;1.00;;;;;;5078825;28;20413;-83
2022/11/28 12:59:52;;;;;;;13.80;8.60;;;9.70;1.00;;;;;;5083456;28;20435;-79
2022/11/28 13:02:47;;;;;;;14.90;8.80;;;9.80;1.00;;;;;;5080236;28;20488;-79
2022/11/28 13:09:02;;;;;;;18.20;8.90;;;9.70;1.00;;;;;;5079645;28;20408;-80
2022/11/28 13:11:51;;;;;;;17.47;9.50;;;9.70;1.00;;;;;;5086905;28;20988;-81
2022/11/28 13:14:28;;;;;;;18.20;9.50;;;9.70;1.00;;;;;;5084516;28;20417;-79
2022/11/28 13:17:40;;;;;;;20.53;9.60;;;9.60;1.00;;;;;;5083500;28;20424;-80
2022/11/28 13:20:43;;;;;;;14.17;8.87;;;9.50;1.00;;;;;;5074921;28;20928;-80
2022/11/28 13:23:21;;;;;;;16.13;9.27;;;9.60;1.00;;;;;;5082115;28;20455;-80
2022/11/28 13:26:30;;;;;;;19.10;9.53;;;9.70;1.00;;;;;;5088794;28;20429;-81
2022/11/28 13:29:05;;;;;;;15.10;9.57;;;9.60;1.00;;;;;;5075153;28;20436;-80
2022/11/28 13:31:56;;;;;;;29.13;10.60;;;9.40;1.00;;;;;;5083601;28;20482;-80
2022/11/28 13:34:29;;;;;;;24.40;10.20;;;9.50;1.00;;;;;;5087798;28;20433;-80
2022/11/28 13:37:21;;;;;;;22.33;10.50;;;9.40;1.00;;;;;;5082409;28;20456;-80
2022/11/28 13:39:57;;;;;;;18.63;10.53;;;9.40;1.00;;;;;;5086747;28;20416;-80
2022/11/28 13:46:34;;;;;;;16.10;8.80;;;9.40;1.00;;;;;;5075997;28;20782;-88
2022/11/28 13:49:21;;;;;;;16.00;9.47;;;9.40;1.00;;;;;;5083810;28;20450;-86
2022/11/28 13:52:18;;;;;;;20.10;10.17;;;9.50;1.00;;;;;;5094402;28;20515;-86
2022/11/28 13:55:28;;;;;;;26.63;11.03;;;9.50;1.00;;;;;;5080658;28;20543;-87
2022/11/28 14:04:58;;;;;;;17.70;9.87;;;9.60;1.00;;;;;;5080100;28;20468;-87
2022/11/28 14:07:59;;;;;;;19.77;10.47;;;9.60;1.00;;;;;;5078832;28;20421;-86
2022/11/28 14:10:38;;;;;;;17.47;10.53;;;9.70;1.00;;;;;;5073897;28;20401;-86
2022/11/28 14:16:55;;;;;;;23.63;10.60;;;9.70;1.00;;;;;;5076463;28;20428;-80
2022/11/28 14:19:25;;;;;;;20.57;10.90;;;9.70;1.00;;;;;;5043686;28;20418;-80
2022/11/28 14:22:19;;;;;;;20.50;11.03;;;9.70;1.00;;;;;;5034926;28;20423;-80
2022/11/28 14:25:12;;;;;;;39.67;10.47;;;9.60;1.00;;;;;;5031776;28;21021;-80
2022/11/28 14:28:00;;;;;;;18.80;10.87;;;9.70;1.00;;;;;;5031985;28;20984;-81
2022/11/28 14:30:31;;;;;;;19.13;10.43;;;9.70;1.00;;;;;;5031575;28;20585;-81
2022/11/28 14:33:31;;;;;;;19.20;11.17;;;9.70;1.00;;;;;;5030547;28;20527;-81
2022/11/28 14:36:24;;;;;;;17.40;9.73;;;9.70;1.00;;;;;;5027537;28;20445;-81
2022/11/28 14:39:28;;;;;;;17.40;10.10;;;9.80;1.00;;;;;;5031741;28;20434;-81
2022/11/28 14:42:11;;;;;;;22.43;11.33;;;9.70;1.00;;;;;;5031561;28;20540;-79
2022/11/28 14:44:55;;;;;;;17.03;10.13;;;9.70;1.00;;;;;;5014913;28;20976;-82
2022/11/28 14:47:41;;;;;;;19.10;10.93;;;9.60;1.00;;;;;;5020178;28;20480;-77
2022/11/28 14:50:16;;;;;;;20.57;10.93;;;9.70;1.00;;;;;;5019865;28;20419;-79
2022/11/28 14:52:45;;;;;;;19.03;10.27;;;9.70;1.00;;;;;;5031309;28;20419;-79
2022/11/28 14:55:11;;;;;;;22.93;10.83;;;9.60;1.00;;;;;;5036574;28;20459;-79
2022/11/28 14:57:59;;;;;;;23.80;10.37;;;9.60;1.00;;;;;;5048612;28;20500;-87
2022/11/28 15:00:46;;;;;;;17.50;9.77;;;9.70;1.00;;;;;;5045300;28;20569;-86
2022/11/28 15:03:36;;;;;;;19.00;10.40;;;9.70;1.00;;;;;;5082609;28;20461;-86
2022/11/28 15:06:32;;;;;;;16.93;10.50;;;9.60;1.00;;;;;;5075350;28;20432;-86
2022/11/28 15:09:41;;;;;;;16.17;9.37;;;9.60;1.00;;;;;;5083175;28;20742;-87
2022/11/28 15:12:19;;;;;;;17.10;10.03;;;9.50;1.00;;;;;;5079985;28;20423;-82
2022/11/28 15:15:06;;;;;;;16.10;9.70;;;9.40;1.00;;;;;;5084469;28;20489;-84
2022/11/28 15:17:50;;;;;;;16.40;10.37;;;9.30;1.00;;;;;;5086260;28;20448;-75
2022/11/28 15:20:36;;;;;;;22.03;10.37;;;9.30;1.00;;;;;;5090935;28;20423;-74
2022/11/28 15:23:02;;;;;;;15.83;10.03;;;9.30;1.00;;;;;;5083367;28;20525;-74
2022/11/28 15:25:36;;;;;;;17.70;10.70;;;9.20;1.00;;;;;;5088730;28;20451;-74
2022/11/28 15:28:19;;;;;;;21.13;10.57;;;9.20;1.00;;;;;;5080830;28;20504;-74
2022/11/28 15:30:47;;;;;;;30.40;12.43;;;9.10;1.00;;;;;;5076445;28;20429;-75
2022/11/28 15:33:17;;;;;;;19.37;9.90;;;9.10;1.00;;;;;;5073452;28;20444;-75
2022/11/28 15:36:23;;;;;;;28.00;11.03;;;9.00;1.00;;;;;;5093129;28;20776;-76
2022/11/28 15:38:54;;;;;;;19.37;10.90;;;9.00;1.00;;;;;;5011481;28;20403;-76
2022/11/28 15:41:35;;;;;;;19.10;10.77;;;9.00;1.00;;;;;;5005351;28;20413;-75
2022/11/28 15:44:01;;;;;;;17.93;10.00;;;9.00;1.00;;;;;;4977122;28;20452;-74
2022/11/28 15:46:35;;;;;;;20.67;11.87;;;9.10;1.00;;;;;;5011014;28;20423;-74
2022/11/28 15:49:02;;;;;;;20.40;10.73;;;9.10;1.00;;;;;;5013162;28;20424;-73
2022/11/28 15:51:31;;;;;;;33.53;13.27;;;9.10;1.00;;;;;;5013778;28;20428;-74
2022/11/28 15:53:59;;;;;;;34.73;13.77;;;9.00;1.00;;;;;;5015252;28;20424;-73
2022/11/28 15:56:25;;;;;;;28.20;14.20;;;9.00;1.00;;;;;;5014922;28;20420;-75
2022/11/28 15:58:52;;;;;;;21.17;11.60;;;9.00;1.00;;;;;;5002308;28;20436;-75
2022/11/28 16:01:25;;;;;;;19.37;10.97;;;9.00;1.00;;;;;;4978823;28;20507;-75
2022/11/28 16:03:55;;;;;;;22.70;11.60;;;9.00;1.00;;;;;;5013214;28;20808;-76
2022/11/28 16:06:27;;;;;;;23.30;10.87;;;9.00;1.00;;;;;;5014832;28;20793;-77
2022/11/28 16:09:01;;;;;;;24.23;10.90;;;9.00;1.00;;;;;;4989056;28;20439;-78
2022/11/28 16:11:30;;;;;;;22.67;12.00;;;8.90;1.00;;;;;;5007435;28;20457;-78
2022/11/28 16:14:08;;;;;;;20.03;11.47;;;8.90;1.00;;;;;;5014759;28;20404;-74
2022/11/28 16:16:37;;;;;;;19.60;11.00;;;8.90;1.00;;;;;;5089744;28;20821;-74
2022/11/28 16:19:07;;;;;;;20.93;11.23;;;8.90;1.00;;;;;;5076802;28;20409;-74
2022/11/28 16:21:42;;;;;;;22.73;12.60;;;8.80;1.00;;;;;;5082757;28;20819;-74
2022/11/28 16:24:29;;;;;;;21.27;11.50;;;8.90;1.00;;;;;;5084910;28;20483;-75
2022/11/28 16:27:00;;;;;;;24.77;11.43;;;8.80;1.00;;;;;;5086628;28;20421;-74
2022/11/28 16:29:33;;;;;;;21.17;11.47;;;8.80;1.00;;;;;;5076465;28;20487;-74
2022/11/28 16:32:20;;;;;;;21.33;11.60;;;8.80;1.00;;;;;;5078140;28;20853;-74
2022/11/28 16:34:52;;;;;;;23.47;12.77;;;8.80;1.00;;;;;;5076133;28;20432;-74
2022/11/28 16:37:27;;;;;;;20.83;11.53;;;8.70;1.00;;;;;;5082347;28;20500;-74